PST: 17:46 MST: 18:46 CST: 19:46 EST: 20:46 LDN: 01:46 UTC: 00:46
User Agent: CCBot/2.0 (https://commoncrawl.org/faq/)
IP Address: 54.161.118.57
Hostname: ec2-54-161-118-57.compute-1.amazonaws.com

METAR:
KBFI 172353Z 17013G18KT 5SM HZ FEW008 SCT020 BKN042 19/16 A2989 RMK AO2 RAE25 SLP121 P0000 60001 T01890161 10228 20183 50004
KBFI 172346Z 18011G17KT 5SM HZ SCT008 BKN012 OVC030 19/16 A2989 RMK AO2 RAE25 P0000 T01890161
KBFI 172258Z 20011G16KT 2 1/2SM -RA BR SCT008 BKN012 OVC030 18/16 A2990 RMK AO2 P0000 T01830161
KBFI 172256Z 19010G17KT 2 1/2SM -RA BR SCT015 BKN030 OVC041 18/16 A2991 RMK AO2 P0000 T01830161
KBFI 172253Z 21010G17KT 2 1/2SM -RA BR SCT008 BKN012 OVC030 18/16 A2991 RMK AO2 SLP126 P0001 T01830161
KBFI 172153Z 21013G20KT 3SM -RA SCT005 BKN011 OVC030 19/16 A2990 RMK AO2 SLP125 P0000 T01890156
KBFI 172053Z 18012G19KT 10SM -RA BKN021 BKN100 22/14 A2988 RMK AO2 SLP117 P0000 60000 T02220144 58003

TAF:
KBFI 172340Z 1800/1824 21012G18KT P6SM -SHRA SCT008 BKN012 OVC030
FM 180400 17009KT P6SM VCSH SCT010 BKN020 BKN050
FM 181000 18007KT P6SM OVC025
FM 181700 21008KT P6SM VCSH SCT015 BKN025 BKN035

KBFI 171720Z 1718/1818 18010G18KT P6SM -RA BKN025 OVC040
FM 172200 22012G20KT P6SM -SHRA BKN025 BKN050
FM 180400 VRB04KT P6SM VCSH BKN025 BKN050
FM 181000 18006KT P6SM OVC025
FM 181700 21006KT P6SM VCSH BKN035

KBFI 171120Z 1712/1812 17009KT P6SM OVC040 TEMPO 1713/1717 -RA OVC025
FM 171700 18010KT P6SM OVC022
FM 172100 18010KT P6SM -SHRA BKN025 OVC040
FM 180500 17010KT P6SM -SHRA BKN035 BKN050
FM 181100 16006KT P6SM VCSH BKN035

KBFI 170539Z 1706/1806 VRB04KT P6SM FEW040 BKN120 OVC200
FM 170900 16006KT P6SM BKN070 OVC120
FM 171300 18008KT P6SM OVC035
FM 171700 18010KT P6SM -RA OVC030
FM 172100 18010KT P6SM -SHRA BKN025 OVC040
FM 180500 17010KT P6SM -SHRA BKN035 BKN050

KBFI 162321Z 1700/1724 VRB04KT P6SM SCT040 BKN250
FM 170900 16006KT P6SM BKN040
FM 171200 18008KT P6SM OVC035
FM 171700 18010KT P6SM -RA OVC030
FM 172100 21010KT P6SM -SHRA BKN030 BKN050